Terminal Aerodrome Forecast
Issued by NWS Twin Cities, MN

Home | Current Version | Previous Version | Text Only | Print | Product List | Glossary Off
Versions: 1 2 3 4 5 6 7 8 9 10 11 12 13 14 15 16 17 18 19

000
FTUS43 KMPX 020843 AAA
TAFSTC
TAF AMD
KSTC 020843Z 0209/0306 VRB03KT 4SM BR FEW250
      TEMPO 0209/0212 1 1/2SM BR
     FM021500 20007KT P6SM SCT250
     FM021900 19012KT P6SM SCT200
     FM030100 16004KT P6SM SCT150=

USA.gov is the U.S. government's official web portal to all federal, state and local government web resources and services.